Terminal Aerodrome Forecast
Issued by NWS Charleston, WV

Current Version | Previous Version | Graphics & Text | Print | Product List | Glossary On
Versions: 1 2 3 4 5 6 7 8 9 10 11 12 13 14 15 16 17 18 19 20 21 22 23
014
FTUS41 KRLX 220908 AAA
TAFCRW
TAF AMD
KCRW 220908Z 2209/2306 32012G22KT P6SM SCT200
     FM221500 34011KT P6SM SCT200
     FM230000 VRB03KT P6SM FEW250=

USA.gov is the U.S. government's official web portal to all federal, state and local government web resources and services.